createdAt,value
2022-09-20T00:01:21.103Z,12.2
2022-09-20T00:07:02.708Z,12.2
2022-09-20T00:12:43.236Z,12.2
2022-09-20T00:18:23.528Z,12.2
2022-09-20T00:24:03.787Z,12.1
2022-09-20T00:29:43.827Z,12.1
2022-09-20T00:35:24.151Z,12
2022-09-20T00:41:04.822Z,12
2022-09-20T00:46:44.958Z,12
2022-09-20T00:52:25.183Z,11.9
2022-09-20T00:58:11.337Z,12
2022-09-20T01:03:51.540Z,11.9
2022-09-20T01:09:31.926Z,11.9
2022-09-20T01:15:12.325Z,11.9
2022-09-20T01:20:52.676Z,11.9
2022-09-20T01:26:32.822Z,11.9
2022-09-20T01:32:13.370Z,11.8
2022-09-20T01:37:53.768Z,11.8
2022-09-20T01:43:34.358Z,11.8
2022-09-20T01:49:15.159Z,11.8
2022-09-20T01:54:55.220Z,11.8
2022-09-20T02:00:35.642Z,11.8
2022-09-20T02:06:16.364Z,11.8
2022-09-20T02:11:56.964Z,11.7
2022-09-20T02:17:37.566Z,11.7
2022-09-20T02:23:20.996Z,11.6
2022-09-20T02:29:01.255Z,11.6
2022-09-20T02:34:45.175Z,11.6
2022-09-20T02:40:25.435Z,11.6
2022-09-20T02:46:06.616Z,11.6
2022-09-20T02:51:47.535Z,0
2022-09-20T02:57:27.905Z,11.6
2022-09-20T03:03:08.415Z,11.6
2022-09-20T03:08:49.699Z,11.5
2022-09-20T03:14:30.464Z,11.5
2022-09-20T03:20:10.725Z,0
2022-09-20T03:25:51.049Z,11.5
2022-09-20T03:31:31.432Z,11.5
2022-09-20T03:37:12.064Z,0
2022-09-20T03:42:52.168Z,0
2022-09-20T03:48:32.454Z,11.4
2022-09-20T03:54:12.752Z,11.3
2022-09-20T03:59:52.961Z,11.3
2022-09-20T04:05:32.987Z,0
2022-09-20T04:11:13.080Z,11.1
2022-09-20T04:16:53.163Z,0
2022-09-20T04:22:34.670Z,11
2022-09-20T04:28:14.515Z,0
2022-09-20T04:33:54.932Z,11
2022-09-20T04:39:35.482Z,11.1
2022-09-20T04:45:15.870Z,11.1
2022-09-20T04:50:56.049Z,11.1
2022-09-20T04:56:36.560Z,11.2
2022-09-20T05:02:17.190Z,11.2
2022-09-20T05:08:00.987Z,11.3
2022-09-20T05:13:47.150Z,11.3
2022-09-20T05:19:27.513Z,11.3
2022-09-20T05:25:07.856Z,11.4
2022-09-20T05:30:48.641Z,11.3
2022-09-20T05:36:33.767Z,11.4
2022-09-20T05:42:16.167Z,11.4
2022-09-20T05:47:57.518Z,11.5
2022-09-20T05:53:38.120Z,11.6
2022-09-20T05:59:18.374Z,11.9
2022-09-20T06:05:01.474Z,11.8
2022-09-20T06:10:42.124Z,12.3
2022-09-20T06:16:22.394Z,0
2022-09-20T06:22:12.756Z,0
2022-09-20T06:28:05.478Z,0
2022-09-20T06:33:47.744Z,0
2022-09-20T06:39:27.745Z,0
2022-09-20T06:45:09.339Z,12.4
2022-09-20T06:50:52.215Z,0
2022-09-20T06:56:35.611Z,0
2022-09-20T07:02:18.867Z,12.5
2022-09-20T07:08:08.084Z,12.6
2022-09-20T07:13:48.329Z,12.7
2022-09-20T07:19:29.051Z,13
2022-09-20T07:25:09.512Z,0
2022-09-20T07:30:50.159Z,13.2
2022-09-20T07:36:30.369Z,0
2022-09-20T07:42:10.991Z,13.7
2022-09-20T07:47:51.862Z,14.2
2022-09-20T07:53:34.308Z,14.3
2022-09-20T07:59:14.716Z,14.7
2022-09-20T08:04:55.176Z,0
2022-09-20T08:10:38.415Z,14.8
2022-09-20T08:16:18.579Z,0
2022-09-20T08:21:59.291Z,0
2022-09-20T08:27:46.951Z,0
2022-09-20T08:33:30.066Z,0
2022-09-20T08:45:40.586Z,0
2022-09-20T08:51:24.359Z,18.6
2022-09-20T08:57:04.956Z,0
2022-09-20T09:02:44.374Z,0
2022-09-20T09:08:24.762Z,0
2022-09-20T09:14:07.390Z,0
2022-09-20T09:19:48.556Z,0
2022-09-20T09:25:28.474Z,16.8
2022-09-20T09:31:08.937Z,0
2022-09-20T09:36:52.446Z,0
2022-09-20T09:42:32.688Z,0
2022-09-20T09:48:16.782Z,0
2022-09-20T09:54:00.199Z,18.7
2022-09-20T09:59:43.514Z,18.5
2022-09-20T10:05:28.152Z,20.1
2022-09-20T10:11:07.346Z,18.5
2022-09-20T10:16:47.514Z,18
2022-09-20T10:22:36.913Z,17.5
2022-09-20T10:28:17.422Z,18
2022-09-20T10:34:03.762Z,17.4
2022-09-20T10:39:44.716Z,17.8
2022-09-20T10:45:53.586Z,18.9
2022-09-20T10:52:15.550Z,20.5
2022-09-20T10:58:01.518Z,21.7
2022-09-20T11:03:44.426Z,22.5
2022-09-20T11:09:24.205Z,21
2022-09-20T11:15:05.707Z,20.8
2022-09-20T11:20:45.162Z,19
2022-09-20T11:26:28.495Z,20
2022-09-20T11:32:11.602Z,21.8
2022-09-20T11:37:56.634Z,19.4
2022-09-20T11:43:36.909Z,18.4
2022-09-20T11:49:18.247Z,17.9
2022-09-20T11:54:58.702Z,17.5
2022-09-20T12:00:38.846Z,17.3
2022-09-20T12:06:19.246Z,17.4
2022-09-20T12:11:59.521Z,17.3
2022-09-20T12:17:39.673Z,16.7
2022-09-20T12:23:19.831Z,16.5
2022-09-20T12:28:59.961Z,16.1
2022-09-20T12:34:40.328Z,16.1
2022-09-20T12:40:20.711Z,15.8
2022-09-20T12:46:05.522Z,15.2
2022-09-20T12:51:53.227Z,14.9
2022-09-20T12:57:33.258Z,14.5
2022-09-20T13:03:15.539Z,14.4
2022-09-20T13:08:55.823Z,14.7
2022-09-20T13:14:36.463Z,15.2
2022-09-20T13:20:17.027Z,15.7
2022-09-20T13:25:57.783Z,16.1
2022-09-20T13:31:41.595Z,16.8
2022-09-20T13:37:22.648Z,17.6
2022-09-20T13:43:22.424Z,17.8
2022-09-20T13:49:05.966Z,18.3
2022-09-20T13:54:46.663Z,17.8
2022-09-20T14:00:28.053Z,17.9
2022-09-20T14:06:13.204Z,18.2
2022-09-20T14:11:53.537Z,18
2022-09-20T14:17:33.694Z,17
2022-09-20T14:23:15.196Z,17.2
2022-09-20T14:28:59.060Z,17.1
2022-09-20T14:34:39.479Z,17.3
2022-09-20T14:40:20.093Z,17.9
2022-09-20T14:46:00.789Z,17.5
2022-09-20T14:51:41.515Z,17.1
2022-09-20T14:57:21.823Z,16.8
2022-09-20T15:03:02.320Z,16.8
2022-09-20T15:08:46.278Z,16.9
2022-09-20T15:14:27.455Z,16.4
2022-09-20T15:20:08.554Z,16.4
2022-09-20T15:25:48.862Z,16.3
2022-09-20T15:31:29.392Z,16.5
2022-09-20T15:37:10.437Z,16.2
2022-09-20T15:42:50.617Z,16
2022-09-20T15:48:31.833Z,16.1
2022-09-20T15:54:12.163Z,16
2022-09-20T15:59:52.406Z,15.6
2022-09-20T16:05:32.921Z,15.5
2022-09-20T16:11:12.959Z,15.4
2022-09-20T16:16:53.238Z,15.4
2022-09-20T16:22:36.686Z,15.4
2022-09-20T16:28:16.787Z,15.3
2022-09-20T16:33:56.994Z,15.2
2022-09-20T16:39:37.236Z,15.1
2022-09-20T16:45:17.396Z,14.8
2022-09-20T16:50:57.545Z,14.7
2022-09-20T17:01:39.619Z,14.4
2022-09-20T17:07:19.912Z,14.3
2022-09-20T17:13:04.292Z,14.1
2022-09-20T17:18:44.728Z,13.8
2022-09-20T17:24:26.398Z,13.6
2022-09-20T17:30:10.745Z,13.4
2022-09-20T17:35:59.820Z,13.1
2022-09-20T17:41:40.062Z,12.9
2022-09-20T17:47:20.294Z,12.7
2022-09-20T17:53:00.476Z,12.4
2022-09-20T17:58:40.602Z,12.2
2022-09-20T18:04:21.171Z,12
2022-09-20T18:10:02.118Z,11.8
2022-09-20T18:15:42.898Z,11.8
2022-09-20T18:21:23.821Z,11.8
2022-09-20T18:27:04.160Z,11.7
2022-09-20T18:32:44.418Z,11.7
2022-09-20T18:38:27.747Z,11.8
2022-09-20T18:44:07.975Z,11.7
2022-09-20T18:49:48.227Z,11.5
2022-09-20T18:55:28.666Z,11.4
2022-09-20T19:01:08.855Z,11.4
2022-09-20T19:06:50.437Z,11.3
2022-09-20T19:12:30.820Z,11.2
2022-09-20T19:18:10.986Z,11
2022-09-20T19:23:51.080Z,10.7
2022-09-20T19:29:33.468Z,10.6
2022-09-20T19:35:13.977Z,10.5
2022-09-20T19:40:54.447Z,10.5
2022-09-20T19:46:34.883Z,10.5
2022-09-20T19:52:15.840Z,10.5
2022-09-20T19:57:56.506Z,10.3
2022-09-20T20:03:36.947Z,10.1
2022-09-20T20:09:17.899Z,10
2022-09-20T20:14:58.125Z,10
2022-09-20T20:20:39.138Z,10.1
2022-09-20T20:26:19.658Z,10.1
2022-09-20T20:31:59.731Z,9.9
2022-09-20T20:37:41.141Z,9.9
2022-09-20T20:43:21.924Z,9.8
2022-09-20T20:49:02.125Z,9.8
2022-09-20T20:54:43.548Z,9.8
2022-09-20T21:00:26.312Z,9.8
2022-09-20T21:06:06.760Z,9.7
2022-09-20T21:11:47.193Z,9.8
2022-09-20T21:17:27.637Z,9.8
2022-09-20T21:23:16.690Z,9.9
2022-09-20T21:28:56.850Z,0
2022-09-20T21:34:37.564Z,10
2022-09-20T21:40:18.726Z,10
2022-09-20T21:46:02.104Z,9.9
2022-09-20T21:51:43.035Z,9.6
2022-09-20T21:57:22.728Z,0
2022-09-20T22:03:05.507Z,9.4
2022-09-20T22:08:45.694Z,9.6
2022-09-20T22:14:26.334Z,9.7
2022-09-20T22:20:06.795Z,9.7
2022-09-20T22:25:47.320Z,9.7
2022-09-20T22:31:27.858Z,9.6
2022-09-20T22:37:08.652Z,9.4
2022-09-20T22:42:48.994Z,9.2
2022-09-20T22:48:29.648Z,9
2022-09-20T22:54:09.847Z,0
2022-09-20T22:59:50.616Z,0
2022-09-20T23:05:30.870Z,8.6
2022-09-20T23:11:11.770Z,8.4
2022-09-20T23:17:10.474Z,0
2022-09-20T23:22:50.942Z,8.3
2022-09-20T23:28:31.832Z,0
2022-09-20T23:34:11.758Z,0
2022-09-20T23:39:52.144Z,0
2022-09-20T23:45:32.439Z,0
2022-09-20T23:51:13.102Z,0
2022-09-20T23:56:53.383Z,0
